createdAt,value
2018-04-24T00:01:20.804Z,99.90
2018-04-24T00:03:48.006Z,99.90
2018-04-24T00:06:14.434Z,99.90
2018-04-24T00:08:40.680Z,99.90
2018-04-24T00:11:07.109Z,99.90
2018-04-24T00:13:33.627Z,99.90
2018-04-24T00:15:59.872Z,99.90
2018-04-24T00:18:26.152Z,99.90
2018-04-24T00:20:52.529Z,99.90
2018-04-24T00:23:18.803Z,99.90
2018-04-24T00:25:45.967Z,99.90
2018-04-24T00:28:12.310Z,99.90
2018-04-24T00:30:38.538Z,99.90
2018-04-24T00:33:04.719Z,99.90
2018-04-24T00:35:31.732Z,99.90
2018-04-24T00:37:58.066Z,99.90
2018-04-24T00:40:24.338Z,99.90
2018-04-24T00:42:51.355Z,99.90
2018-04-24T00:45:17.627Z,99.90
2018-04-24T00:47:43.941Z,99.90
2018-04-24T00:50:10.988Z,99.90
2018-04-24T00:52:37.378Z,99.90
2018-04-24T00:55:03.619Z,99.90
2018-04-24T00:57:29.812Z,99.90
2018-04-24T00:59:56.037Z,99.90
2018-04-24T01:02:22.334Z,99.90
2018-04-24T01:04:48.827Z,99.90
2018-04-24T01:07:15.063Z,99.90
2018-04-24T01:09:42.070Z,99.90
2018-04-24T01:12:08.331Z,99.90
2018-04-24T01:14:36.126Z,99.90
2018-04-24T01:17:03.145Z,99.90
2018-04-24T01:19:30.867Z,99.90
2018-04-24T01:21:57.202Z,99.90
2018-04-24T01:24:23.421Z,99.90
2018-04-24T01:26:49.617Z,99.90
2018-04-24T01:29:16.631Z,99.90
2018-04-24T01:31:43.048Z,99.90
2018-04-24T01:34:09.240Z,99.90
2018-04-24T01:36:36.546Z,99.90
2018-04-24T01:39:05.016Z,99.90
2018-04-24T01:41:31.990Z,99.90
2018-04-24T01:43:58.945Z,99.90
2018-04-24T01:46:25.987Z,99.90
2018-04-24T01:48:52.897Z,99.90
2018-04-24T01:51:19.881Z,99.90
2018-04-24T01:53:46.204Z,99.90
2018-04-24T01:56:28.201Z,99.90
2018-04-24T01:58:55.128Z,99.90
2018-04-24T02:01:21.358Z,99.90
2018-04-24T02:03:48.581Z,99.90
2018-04-24T02:06:14.769Z,99.90
2018-04-24T02:08:41.013Z,99.90
2018-04-24T02:11:07.359Z,99.90
2018-04-24T02:13:34.095Z,99.90
2018-04-24T02:16:00.447Z,99.90
2018-04-24T02:18:26.690Z,99.90
2018-04-24T02:20:53.754Z,99.90
2018-04-24T02:23:20.067Z,99.90
2018-04-24T02:25:46.972Z,99.90
2018-04-24T02:28:13.157Z,99.90
2018-04-24T02:30:39.486Z,99.90
2018-04-24T02:33:05.819Z,99.90
2018-04-24T02:35:32.096Z,99.90
2018-04-24T02:37:58.340Z,99.90
2018-04-24T02:40:24.741Z,99.90
2018-04-24T02:42:51.801Z,99.90
2018-04-24T02:45:18.042Z,99.90
2018-04-24T02:47:44.309Z,99.90
2018-04-24T02:50:10.721Z,99.90
2018-04-24T02:52:38.152Z,99.90
2018-04-24T02:55:04.463Z,99.90
2018-04-24T02:57:30.729Z,99.90
2018-04-24T02:59:57.749Z,99.90
2018-04-24T03:02:23.908Z,99.90
2018-04-24T03:04:50.834Z,99.90
2018-04-24T03:07:17.154Z,99.90
2018-04-24T03:09:43.464Z,99.90
2018-04-24T03:12:09.743Z,99.90
2018-04-24T03:14:36.022Z,99.90
2018-04-24T03:17:02.270Z,99.90
2018-04-24T03:19:28.469Z,99.90
2018-04-24T03:21:54.734Z,99.90
2018-04-24T03:24:21.664Z,99.90
2018-04-24T03:26:49.511Z,99.90
2018-04-24T03:29:15.854Z,99.90
2018-04-24T03:31:42.940Z,99.90
2018-04-24T03:34:09.149Z,99.90
2018-04-24T03:36:36.137Z,99.90
2018-04-24T03:39:02.566Z,99.90
2018-04-24T03:41:28.872Z,99.90
2018-04-24T03:43:55.167Z,99.90
2018-04-24T03:46:22.212Z,99.90
2018-04-24T03:48:49.135Z,99.90
2018-04-24T03:51:15.525Z,99.90
2018-04-24T03:53:41.857Z,99.90
2018-04-24T03:56:08.448Z,99.90
2018-04-24T03:58:35.449Z,99.90
2018-04-24T04:01:01.815Z,99.90
2018-04-24T04:03:27.976Z,99.90
2018-04-24T04:05:54.208Z,99.90
2018-04-24T04:08:21.239Z,99.90
2018-04-24T04:10:48.297Z,99.90
2018-04-24T04:13:15.522Z,99.90
2018-04-24T04:15:42.630Z,99.90
2018-04-24T04:18:21.325Z,99.90
2018-04-24T04:21:00.011Z,99.90
2018-04-24T04:23:40.276Z,99.90
2018-04-24T04:26:07.434Z,99.90
2018-04-24T04:28:34.576Z,99.90
2018-04-24T04:31:01.706Z,99.90
2018-04-24T04:33:29.363Z,99.90
2018-04-24T04:35:55.620Z,99.90
2018-04-24T04:38:22.677Z,99.90
2018-04-24T04:40:49.151Z,99.90
2018-04-24T04:43:15.392Z,99.90
2018-04-24T04:45:41.693Z,99.90
2018-04-24T04:48:07.969Z,99.90
2018-04-24T04:50:35.195Z,99.90
2018-04-24T04:53:01.475Z,99.90
2018-04-24T04:55:27.729Z,99.90
2018-04-24T04:57:54.020Z,99.90
2018-04-24T05:00:21.202Z,99.90
2018-04-24T05:02:47.411Z,99.90
2018-04-24T05:05:13.873Z,99.90
2018-04-24T05:07:40.165Z,99.90
2018-04-24T05:10:06.633Z,99.90
2018-04-24T05:12:33.054Z,99.90
2018-04-24T05:14:59.372Z,99.90
2018-04-24T05:17:25.688Z,99.90
2018-04-24T05:19:52.031Z,99.90
2018-04-24T05:22:18.405Z,99.90
2018-04-24T05:24:46.112Z,99.90
2018-04-24T05:27:12.445Z,99.90
2018-04-24T05:29:38.829Z,99.90
2018-04-24T05:32:05.159Z,99.90
2018-04-24T05:34:31.393Z,99.90
2018-04-24T05:36:57.647Z,99.90
2018-04-24T05:39:24.956Z,99.90
2018-04-24T05:41:51.159Z,99.90
2018-04-24T05:44:17.622Z,99.90
2018-04-24T05:46:43.949Z,99.90
2018-04-24T05:49:10.136Z,99.90
2018-04-24T05:51:36.417Z,99.90
2018-04-24T05:54:03.646Z,99.90
2018-04-24T05:56:30.287Z,99.90
2018-04-24T05:58:56.615Z,99.90
2018-04-24T06:01:23.160Z,99.90
2018-04-24T06:03:50.966Z,99.90
2018-04-24T06:06:17.293Z,99.90
2018-04-24T06:08:43.732Z,99.90
2018-04-24T06:11:10.695Z,99.90
2018-04-24T06:13:37.788Z,99.90
2018-04-24T06:16:04.092Z,99.90
2018-04-24T06:18:30.634Z,99.90
2018-04-24T06:20:56.849Z,99.90
2018-04-24T06:23:22.976Z,99.90
2018-04-24T06:25:49.243Z,99.90
2018-04-24T06:28:15.802Z,99.70
2018-04-24T06:30:42.128Z,98.70
2018-04-24T06:33:08.362Z,98.40
2018-04-24T06:35:34.535Z,97.50
2018-04-24T06:38:00.849Z,97.80
2018-04-24T06:40:27.125Z,96.30
2018-04-24T06:42:54.622Z,90.00
2018-04-24T06:45:20.889Z,90.00
2018-04-24T06:47:47.164Z,93.40
2018-04-24T06:50:13.452Z,92.70
2018-04-24T06:52:40.922Z,92.20
2018-04-24T06:55:08.117Z,91.70
2018-04-24T06:57:35.261Z,91.90
2018-04-24T07:00:01.821Z,92.00
2018-04-24T07:02:28.350Z,94.00
2018-04-24T07:04:54.962Z,92.20
2018-04-24T07:07:21.212Z,92.90
2018-04-24T07:09:47.595Z,91.90
2018-04-24T07:12:13.980Z,92.80
2018-04-24T07:14:40.218Z,91.80
2018-04-24T07:17:06.465Z,93.90
2018-04-24T07:19:33.457Z,94.20
2018-04-24T07:22:00.441Z,94.20
2018-04-24T07:24:26.665Z,94.60
2018-04-24T07:26:53.078Z,96.40
2018-04-24T07:29:19.280Z,97.30
2018-04-24T07:31:45.540Z,97.60
2018-04-24T07:34:11.839Z,97.80
2018-04-24T07:36:38.190Z,97.80
2018-04-24T07:39:05.516Z,97.60
2018-04-24T07:41:31.810Z,97.30
2018-04-24T07:43:58.805Z,96.80
2018-04-24T07:46:25.003Z,96.70
2018-04-24T07:48:51.356Z,96.40
2018-04-24T07:51:17.746Z,98.00
2018-04-24T07:53:44.860Z,96.00
2018-04-24T07:56:11.288Z,96.10
2018-04-24T07:58:39.148Z,96.90
2018-04-24T08:01:05.445Z,96.90
2018-04-24T08:03:31.683Z,96.60
2018-04-24T08:05:58.020Z,98.60
2018-04-24T08:08:24.265Z,96.40
2018-04-24T08:10:50.607Z,97.90
2018-04-24T08:13:16.890Z,96.30
2018-04-24T08:15:43.193Z,96.50
2018-04-24T08:18:10.167Z,96.30
2018-04-24T08:20:36.464Z,96.30
2018-04-24T08:23:03.571Z,96.60
2018-04-24T08:25:29.891Z,96.60
2018-04-24T08:27:56.274Z,96.20
2018-04-24T08:30:22.585Z,95.70
2018-04-24T08:32:49.613Z,97.30
2018-04-24T08:35:16.016Z,97.30
2018-04-24T08:37:42.351Z,96.00
2018-04-24T08:40:08.903Z,96.90
2018-04-24T08:42:35.691Z,95.80
2018-04-24T08:45:02.640Z,96.30
2018-04-24T08:47:28.884Z,96.30
2018-04-24T08:49:55.076Z,94.60
2018-04-24T08:52:22.078Z,94.90
2018-04-24T08:54:48.242Z,94.80
2018-04-24T08:57:15.301Z,95.50
2018-04-24T08:59:42.261Z,95.30
2018-04-24T09:02:08.555Z,95.30
2018-04-24T09:04:34.817Z,95.60
2018-04-24T09:07:01.138Z,94.90
2018-04-24T09:09:28.127Z,94.30
2018-04-24T09:11:54.447Z,94.20
2018-04-24T09:14:20.850Z,93.80
2018-04-24T09:16:47.084Z,92.70
2018-04-24T09:19:13.406Z,91.40
2018-04-24T09:21:39.785Z,91.90
2018-04-24T09:24:06.112Z,90.70
2018-04-24T09:26:32.394Z,87.10
2018-04-24T09:28:58.660Z,89.60
2018-04-24T09:31:31.167Z,86.10
2018-04-24T09:33:57.485Z,90.40
2018-04-24T09:36:23.800Z,87.40
2018-04-24T09:38:50.912Z,83.60
2018-04-24T09:41:18.307Z,83.70
2018-04-24T09:43:44.606Z,86.30
2018-04-24T09:46:11.734Z,83.00
2018-04-24T09:48:38.496Z,82.70
2018-04-24T09:51:04.992Z,81.40
2018-04-24T09:53:31.971Z,75.90
2018-04-24T09:55:58.293Z,76.60
2018-04-24T09:58:24.780Z,77.20
2018-04-24T10:00:51.959Z,76.90
2018-04-24T10:03:19.173Z,73.70
2018-04-24T10:05:45.626Z,73.80
2018-04-24T10:08:13.017Z,75.20
2018-04-24T10:10:39.945Z,75.10
2018-04-24T10:13:06.391Z,73.00
2018-04-24T10:15:32.665Z,72.40
2018-04-24T10:17:58.947Z,68.80
2018-04-24T10:20:25.353Z,68.50
2018-04-24T10:22:53.259Z,67.30
2018-04-24T10:25:20.159Z,67.30
2018-04-24T10:27:47.154Z,58.80
2018-04-24T10:30:13.477Z,58.80
2018-04-24T10:32:39.836Z,60.00
2018-04-24T10:35:06.059Z,57.90
2018-04-24T10:37:32.615Z,59.80
2018-04-24T10:39:59.754Z,58.90
2018-04-24T10:42:26.701Z,58.70
2018-04-24T10:44:52.957Z,57.20
2018-04-24T10:47:19.961Z,58.20
2018-04-24T10:49:46.231Z,58.30
2018-04-24T10:52:13.271Z,57.70
2018-04-24T10:54:40.322Z,56.00
2018-04-24T10:57:07.439Z,54.00
2018-04-24T10:59:33.976Z,54.00
2018-04-24T11:02:00.398Z,55.50
2018-04-24T11:04:26.668Z,55.00
2018-04-24T11:06:53.778Z,54.10
2018-04-24T11:09:20.181Z,54.10
2018-04-24T11:11:46.754Z,53.30
2018-04-24T11:14:13.798Z,53.10
2018-04-24T11:16:41.515Z,57.50
2018-04-24T11:19:07.876Z,57.50
2018-04-24T11:21:35.134Z,51.40
2018-04-24T11:24:01.667Z,50.00
2018-04-24T11:26:28.054Z,51.50
2018-04-24T11:28:54.399Z,52.40
2018-04-24T11:31:20.825Z,49.50
2018-04-24T11:33:47.055Z,49.60
2018-04-24T11:36:13.280Z,50.70
2018-04-24T11:38:39.594Z,52.00
2018-04-24T11:41:05.908Z,52.10
2018-04-24T11:43:33.065Z,52.50
2018-04-24T11:46:00.109Z,53.40
2018-04-24T11:48:27.349Z,54.50
2018-04-24T11:50:54.420Z,53.70
2018-04-24T11:53:20.602Z,53.60
2018-04-24T11:55:46.779Z,53.70
2018-04-24T11:58:13.045Z,53.80
2018-04-24T12:00:39.306Z,55.00
2018-04-24T12:03:05.611Z,55.20
2018-04-24T12:05:32.059Z,54.90
2018-04-24T12:07:59.008Z,58.50
2018-04-24T12:10:25.414Z,58.50
2018-04-24T12:12:51.663Z,57.60
2018-04-24T12:15:18.087Z,55.70
2018-04-24T12:17:44.405Z,57.20
2018-04-24T12:20:10.935Z,56.60
2018-04-24T12:22:38.149Z,56.00
2018-04-24T12:25:04.530Z,56.80
2018-04-24T12:27:30.926Z,57.50
2018-04-24T12:29:58.715Z,58.10
2018-04-24T12:32:24.975Z,58.30
2018-04-24T12:34:52.237Z,55.90
2018-04-24T12:37:19.255Z,56.00
2018-04-24T12:39:46.057Z,56.00
2018-04-24T12:42:12.408Z,55.20
2018-04-24T12:44:38.646Z,55.80
2018-04-24T12:47:05.321Z,55.70
2018-04-24T12:49:32.511Z,55.60
2018-04-24T12:51:58.873Z,55.60
2018-04-24T12:54:25.397Z,57.50
2018-04-24T12:56:51.728Z,58.30
2018-04-24T12:59:18.114Z,57.40
2018-04-24T13:01:44.490Z,56.70
2018-04-24T13:04:10.946Z,58.70
2018-04-24T13:06:37.314Z,58.90
2018-04-24T13:09:03.681Z,58.90
2018-04-24T13:11:30.023Z,56.60
2018-04-24T13:13:56.319Z,58.30
2018-04-24T13:16:22.491Z,58.70
2018-04-24T13:18:48.859Z,56.80
2018-04-24T13:21:15.252Z,58.00
2018-04-24T13:23:41.503Z,58.80
2018-04-24T13:26:08.570Z,58.60
2018-04-24T13:28:34.936Z,58.60
2018-04-24T13:31:01.271Z,57.30
2018-04-24T13:33:34.534Z,61.80
2018-04-24T13:36:00.735Z,60.40
2018-04-24T13:38:26.917Z,59.40
2018-04-24T13:40:53.142Z,58.80
2018-04-24T13:43:19.365Z,58.50
2018-04-24T13:45:45.826Z,60.00
2018-04-24T13:48:12.351Z,59.20
2018-04-24T13:50:38.574Z,61.20
2018-04-24T13:53:04.966Z,61.00
2018-04-24T13:55:31.244Z,59.90
2018-04-24T13:57:57.502Z,62.10
2018-04-24T14:00:23.860Z,61.30
2018-04-24T14:02:50.312Z,62.20
2018-04-24T14:05:16.563Z,59.70
2018-04-24T14:07:42.776Z,59.90
2018-04-24T14:10:09.890Z,64.20
2018-04-24T14:12:36.096Z,64.20
2018-04-24T14:15:02.345Z,61.70
2018-04-24T14:17:28.628Z,62.10
2018-04-24T14:19:54.831Z,61.30
2018-04-24T14:22:21.066Z,58.90
2018-04-24T14:24:47.538Z,60.40
2018-04-24T14:27:13.813Z,60.90
2018-04-24T14:29:40.478Z,61.70
2018-04-24T14:32:06.833Z,60.50
2018-04-24T14:34:33.042Z,61.00
2018-04-24T14:37:00.127Z,60.70
2018-04-24T14:39:26.442Z,60.70
2018-04-24T14:41:52.831Z,60.20
2018-04-24T14:44:19.022Z,62.00
2018-04-24T14:46:45.242Z,60.40
2018-04-24T14:49:11.413Z,60.50
2018-04-24T14:51:37.890Z,61.80
2018-04-24T14:54:04.886Z,63.80
2018-04-24T14:56:31.876Z,62.00
2018-04-24T14:58:58.152Z,62.00
2018-04-24T15:01:24.427Z,60.80
2018-04-24T15:03:50.779Z,62.80
2018-04-24T15:06:17.180Z,61.10
2018-04-24T15:08:44.345Z,60.80
2018-04-24T15:11:10.627Z,60.80
2018-04-24T15:13:37.160Z,62.70
2018-04-24T15:16:03.343Z,62.00
2018-04-24T15:18:29.715Z,61.50
2018-04-24T15:20:56.100Z,60.90
2018-04-24T15:23:22.298Z,61.80
2018-04-24T15:25:50.213Z,65.00
2018-04-24T15:28:16.744Z,64.90
2018-04-24T15:30:43.142Z,65.70
2018-04-24T15:33:10.147Z,64.50
2018-04-24T15:35:36.414Z,64.50
2018-04-24T15:38:03.479Z,63.00
2018-04-24T15:40:29.874Z,62.90
2018-04-24T15:42:56.158Z,65.40
2018-04-24T15:45:22.426Z,66.10
2018-04-24T15:47:48.754Z,66.30
2018-04-24T15:50:15.054Z,68.20
2018-04-24T15:52:41.276Z,66.80
2018-04-24T15:55:08.274Z,67.20
2018-04-24T15:57:35.430Z,67.40
2018-04-24T16:00:02.563Z,69.90
2018-04-24T16:02:29.575Z,70.70
2018-04-24T16:04:55.868Z,70.70
2018-04-24T16:07:22.147Z,71.00
2018-04-24T16:09:48.669Z,71.80
2018-04-24T16:12:14.903Z,73.10
2018-04-24T16:14:41.225Z,71.20
2018-04-24T16:17:07.607Z,73.20
2018-04-24T16:19:41.139Z,72.00
2018-04-24T16:22:08.243Z,76.40
2018-04-24T16:24:35.176Z,75.70
2018-04-24T16:27:01.541Z,75.70
2018-04-24T16:29:27.698Z,75.30
2018-04-24T16:31:54.152Z,76.60
2018-04-24T16:34:20.580Z,79.40
2018-04-24T16:36:46.953Z,77.60
2018-04-24T16:39:13.160Z,78.20
2018-04-24T16:41:41.604Z,80.40
2018-04-24T16:44:07.909Z,80.40
2018-04-24T16:46:34.725Z,80.60
2018-04-24T16:49:01.152Z,83.00
2018-04-24T16:51:28.323Z,83.20
2018-04-24T16:53:54.824Z,83.20
2018-04-24T16:56:21.992Z,87.10
2018-04-24T16:58:49.408Z,86.90
2018-04-24T17:01:15.763Z,86.90
2018-04-24T17:03:42.771Z,89.10
2018-04-24T17:06:09.094Z,88.50
2018-04-24T17:08:36.049Z,88.80
2018-04-24T17:11:02.494Z,88.70
2018-04-24T17:13:28.807Z,89.70
2018-04-24T17:15:55.262Z,89.40
2018-04-24T17:18:21.582Z,90.70
2018-04-24T17:20:48.016Z,90.00
2018-04-24T17:23:14.265Z,91.70
2018-04-24T17:25:40.526Z,91.70
2018-04-24T17:28:06.922Z,92.70
2018-04-24T17:30:33.229Z,93.10
2018-04-24T17:32:59.758Z,93.10
2018-04-24T17:35:27.329Z,93.30
2018-04-24T17:37:53.612Z,94.20
2018-04-24T17:40:20.022Z,94.40
2018-04-24T17:42:47.116Z,95.40
2018-04-24T17:45:13.449Z,95.40
2018-04-24T17:47:39.741Z,95.90
2018-04-24T17:50:06.169Z,96.90
2018-04-24T17:52:32.628Z,96.20
2018-04-24T17:54:59.039Z,96.50
2018-04-24T17:57:25.578Z,96.30
2018-04-24T17:59:52.005Z,96.40
2018-04-24T18:02:18.274Z,96.80
2018-04-24T18:04:44.732Z,96.90
2018-04-24T18:07:11.203Z,96.90
2018-04-24T18:09:37.455Z,97.10
2018-04-24T18:12:03.927Z,98.00
2018-04-24T18:14:30.242Z,98.70
2018-04-24T18:16:56.500Z,98.50
2018-04-24T18:19:23.671Z,99.30
2018-04-24T18:21:49.950Z,99.30
2018-04-24T18:24:16.253Z,99.90
2018-04-24T18:26:42.713Z,98.60
2018-04-24T18:29:13.117Z,99.90
2018-04-24T18:31:39.486Z,99.20
2018-04-24T18:34:09.903Z,99.90
2018-04-24T18:36:37.159Z,99.90
2018-04-24T18:39:03.732Z,99.90
2018-04-24T18:41:30.315Z,99.90
2018-04-24T18:43:56.675Z,99.90
2018-04-24T18:46:23.741Z,99.90
2018-04-24T18:48:50.101Z,99.90
2018-04-24T18:51:16.343Z,99.90
2018-04-24T18:53:42.632Z,99.90
2018-04-24T18:56:09.418Z,99.90
2018-04-24T18:58:35.762Z,99.90
2018-04-24T19:01:02.146Z,99.90
2018-04-24T19:03:28.470Z,99.90
2018-04-24T19:05:54.752Z,99.90
2018-04-24T19:08:21.131Z,99.90
2018-04-24T19:10:48.347Z,99.90
2018-04-24T19:13:15.389Z,99.90
2018-04-24T19:15:41.664Z,99.90
2018-04-24T19:18:08.034Z,99.90
2018-04-24T19:20:34.351Z,99.90
2018-04-24T19:23:00.857Z,99.90
2018-04-24T19:25:33.340Z,99.90
2018-04-24T19:28:00.017Z,99.90
2018-04-24T19:30:26.541Z,99.90
2018-04-24T19:32:52.921Z,99.90
2018-04-24T19:35:19.241Z,99.90
2018-04-24T19:37:45.651Z,99.90
2018-04-24T19:40:19.122Z,99.90
2018-04-24T19:42:45.456Z,99.90
2018-04-24T19:45:12.849Z,99.90
2018-04-24T19:47:40.304Z,99.90
2018-04-24T19:50:13.524Z,99.90
2018-04-24T19:52:39.869Z,99.90
2018-04-24T19:55:12.284Z,99.90
2018-04-24T19:57:38.521Z,99.90
2018-04-24T20:00:06.458Z,99.90
2018-04-24T20:02:32.794Z,99.90
2018-04-24T20:04:59.019Z,99.90
2018-04-24T20:07:26.930Z,99.90
2018-04-24T20:09:53.221Z,99.90
2018-04-24T20:12:20.412Z,99.90
2018-04-24T20:14:46.786Z,99.90
2018-04-24T20:17:13.067Z,99.90
2018-04-24T20:19:39.306Z,99.90
2018-04-24T20:22:05.672Z,99.90
2018-04-24T20:24:31.866Z,99.90
2018-04-24T20:26:58.113Z,99.90
2018-04-24T20:29:24.798Z,99.90
2018-04-24T20:31:51.865Z,99.90
2018-04-24T20:34:18.085Z,99.90
2018-04-24T20:36:44.538Z,99.90
2018-04-24T20:39:11.068Z,99.90
2018-04-24T20:41:37.273Z,99.90
2018-04-24T20:44:04.303Z,99.90
2018-04-24T20:46:31.331Z,99.90
2018-04-24T20:48:57.633Z,99.90
2018-04-24T20:51:23.982Z,99.90
2018-04-24T20:53:50.280Z,99.90
2018-04-24T20:56:16.653Z,99.90
2018-04-24T20:58:42.904Z,99.90
2018-04-24T21:01:10.073Z,99.90
2018-04-24T21:03:36.327Z,99.90
2018-04-24T21:06:02.686Z,99.90
2018-04-24T21:08:28.995Z,99.90
2018-04-24T21:10:55.558Z,99.90
2018-04-24T21:13:21.753Z,99.90
2018-04-24T21:15:48.098Z,99.90
2018-04-24T21:18:14.397Z,99.90
2018-04-24T21:20:40.653Z,99.90
2018-04-24T21:23:06.978Z,99.90
2018-04-24T21:25:33.387Z,99.90
2018-04-24T21:27:59.749Z,99.90
2018-04-24T21:30:26.994Z,99.90
2018-04-24T21:32:53.266Z,99.90
2018-04-24T21:35:20.414Z,99.90
2018-04-24T21:37:47.405Z,99.90
2018-04-24T21:40:14.151Z,99.90
2018-04-24T21:42:40.389Z,99.90
2018-04-24T21:45:06.736Z,99.90
2018-04-24T21:47:33.725Z,99.90
2018-04-24T21:49:59.905Z,99.90
2018-04-24T21:52:26.791Z,99.90
2018-04-24T21:54:53.106Z,99.90
2018-04-24T21:57:19.492Z,99.90
2018-04-24T21:59:45.823Z,99.90
2018-04-24T22:02:12.096Z,99.90
2018-04-24T22:04:38.711Z,99.90
2018-04-24T22:07:04.959Z,99.90
2018-04-24T22:09:31.275Z,99.90
2018-04-24T22:11:58.338Z,99.90
2018-04-24T22:14:25.249Z,99.90
2018-04-24T22:16:51.507Z,99.90
2018-04-24T22:19:32.947Z,99.90
2018-04-24T22:21:59.369Z,99.90
2018-04-24T22:24:25.595Z,99.90
2018-04-24T22:26:52.098Z,99.90
2018-04-24T22:29:18.583Z,99.90
2018-04-24T22:31:44.898Z,99.80
2018-04-24T22:34:11.100Z,99.90
2018-04-24T22:36:37.271Z,99.90
2018-04-24T22:39:03.799Z,99.90
2018-04-24T22:41:30.178Z,99.90
2018-04-24T22:43:56.447Z,99.90
2018-04-24T22:46:22.737Z,99.90
2018-04-24T22:48:49.048Z,99.90
2018-04-24T22:51:15.401Z,99.90
2018-04-24T22:53:41.685Z,99.90
2018-04-24T22:56:07.933Z,99.90
2018-04-24T22:58:34.740Z,99.90
2018-04-24T23:01:02.558Z,99.90
2018-04-24T23:03:29.011Z,99.90
2018-04-24T23:05:55.376Z,99.90
2018-04-24T23:08:21.906Z,99.90
2018-04-24T23:11:01.922Z,99.90
2018-04-24T23:13:40.724Z,99.90
2018-04-24T23:16:19.334Z,99.90
2018-04-24T23:18:57.991Z,99.90
2018-04-24T23:21:24.063Z,99.90
2018-04-24T23:23:51.099Z,99.90
2018-04-24T23:26:18.336Z,99.90
2018-04-24T23:28:44.598Z,99.90
2018-04-24T23:31:11.761Z,99.90
2018-04-24T23:33:37.966Z,99.90
2018-04-24T23:36:04.952Z,99.90
2018-04-24T23:38:31.253Z,99.90
2018-04-24T23:40:57.592Z,99.90
2018-04-24T23:43:23.957Z,99.90
2018-04-24T23:45:50.333Z,99.90
2018-04-24T23:48:17.276Z,99.90
2018-04-24T23:50:44.320Z,99.90
2018-04-24T23:53:11.314Z,99.90
2018-04-24T23:55:37.511Z,99.90
2018-04-24T23:58:03.838Z,99.90
